Impacts TAF Board
For situational awareness. Not to be used for flight planning purposes.
IDs:

KLAS - Las Vegas/McCarran I, NV, US

Issued at 1435 UTC 16 Feb 2019
Updated at 1548 UTC 16 Feb 2019
Potential Impact None Slight Moderate High
Time1456Z 16/16Z 16/17Z 16/18Z 16/19Z 16/20Z 16/21Z 16/22Z 16/23Z 17/00Z 17/01Z 17/02Z 17/03Z 17/04Z>>
Type OBS PRVL PRVL PRVL PRVL PRVL PRVL PRVL PRVL PRVL PRVL PRVL PRVL PRVL
VIS 10 >6 >6 >6 >6 >6 >6 >6 >6 >6 >6 >6 >6 >6
CIG -- -- -- -- -- -- -- -- -- -- -- 110 110 110
Cover FEW SCT SCT SCT SCT SCT SCT SCT SCT SCT SCT BKN BKN BKN
FltCat VFR VFR VFR VFR VFR VFR VFR VFR VFR VFR VFR VFR VFR VFR
WX -- -- -- -- -- -- -- -- -- -- -- -- -- --
WDir VRB VRB VRB VRB VRB VRB 220 220 220 220 220 240 240 240
WSpd 0 5 5 5 5 5 8 8 8 8 8 7 7 7
WGst -- -- -- -- -- -- -- -- -- -- -- -- -- --
Raw TAF
KLAS 161435Z 1615/1718 VRB05KT P6SM SCT100
  FM162100 22008KT P6SM SCT100
  FM170200 24007KT P6SM BKN110


Raw METAR
KLAS 161456Z 00000KT 10SM FEW080 05/M01 A2995 RMK AO2 SLP140 T00501006 53020
KLAS 161356Z 22005KT 10SM FEW080 05/M01 A2992 RMK AO2 SLP131 T00501006
KLAS 161256Z 28007KT 10SM FEW080 06/M01 A2989 RMK AO2 SLP119 T00561006

METAR Board
Radar Display
Forecast Discussion
For situational awareness. Not to be used for flight planning purposes.